sensor_id;sensor_type;location;lat;lon;timestamp;pressure;altitude;pressure_sealevel;temperature;humidity
71573;BME280;59408;51.032;9.410;2024-01-30T00:00:05;100341.97;;;-1.06;100.00
71573;BME280;59408;51.032;9.410;2024-01-30T00:02:32;100336.03;;;-1.08;100.00
71573;BME280;59408;51.032;9.410;2024-01-30T00:05:00;100329.16;;;-1.15;100.00
71573;BME280;59408;51.032;9.410;2024-01-30T00:07:26;100323.69;;;-1.20;100.00
71573;BME280;59408;51.032;9.410;2024-01-30T00:09:53;100320.66;;;-1.24;100.00
71573;BME280;59408;51.032;9.410;2024-01-30T00:12:20;100313.88;;;-1.26;100.00
71573;BME280;59408;51.032;9.410;2024-01-30T00:14:46;100312.28;;;-1.27;100.00
71573;BME280;59408;51.032;9.410;2024-01-30T00:17:13;100321.22;;;-1.33;100.00
71573;BME280;59408;51.032;9.410;2024-01-30T00:19:40;100318.75;;;-1.35;100.00
71573;BME280;59408;51.032;9.410;2024-01-30T00:22:08;100319.59;;;-1.23;100.00
71573;BME280;59408;51.032;9.410;2024-01-30T00:24:34;100324.03;;;-1.28;100.00
71573;BME280;59408;51.032;9.410;2024-01-30T00:27:01;100317.63;;;-1.27;100.00
71573;BME280;59408;51.032;9.410;2024-01-30T00:29:28;100318.53;;;-1.33;100.00
71573;BME280;59408;51.032;9.410;2024-01-30T00:31:54;100323.41;;;-1.42;100.00
71573;BME280;59408;51.032;9.410;2024-01-30T00:34:21;100323.94;;;-1.52;100.00
71573;BME280;59408;51.032;9.410;2024-01-30T00:36:48;100315.22;;;-1.59;100.00
71573;BME280;59408;51.032;9.410;2024-01-30T00:39:15;100320.66;;;-1.65;100.00
71573;BME280;59408;51.032;9.410;2024-01-30T00:41:42;100311.22;;;-1.68;100.00
71573;BME280;59408;51.032;9.410;2024-01-30T00:44:09;100311.81;;;-1.66;100.00
71573;BME280;59408;51.032;9.410;2024-01-30T00:46:35;100309.75;;;-1.64;100.00
71573;BME280;59408;51.032;9.410;2024-01-30T00:49:02;100311.59;;;-1.64;100.00
71573;BME280;59408;51.032;9.410;2024-01-30T00:51:29;100315.44;;;-1.60;100.00
71573;BME280;59408;51.032;9.410;2024-01-30T00:53:56;100306.25;;;-1.64;100.00
71573;BME280;59408;51.032;9.410;2024-01-30T00:56:23;100321.47;;;-1.65;100.00
71573;BME280;59408;51.032;9.410;2024-01-30T00:58:50;100319.84;;;-1.66;100.00
71573;BME280;59408;51.032;9.410;2024-01-30T01:01:16;100321.47;;;-1.65;100.00
71573;BME280;59408;51.032;9.410;2024-01-30T01:03:43;100317.75;;;-1.64;100.00
71573;BME280;59408;51.032;9.410;2024-01-30T01:06:10;100322.88;;;-1.62;100.00
71573;BME280;59408;51.032;9.410;2024-01-30T01:08:37;100326.34;;;-1.62;100.00
71573;BME280;59408;51.032;9.410;2024-01-30T01:11:03;100322.63;;;-1.61;100.00
71573;BME280;59408;51.032;9.410;2024-01-30T01:13:31;100318.94;;;-1.60;100.00
71573;BME280;59408;51.032;9.410;2024-01-30T01:15:58;100317.88;;;-1.59;100.00
71573;BME280;59408;51.032;9.410;2024-01-30T01:18:24;100318.81;;;-1.65;100.00
71573;BME280;59408;51.032;9.410;2024-01-30T01:20:51;100315.16;;;-1.70;100.00
71573;BME280;59408;51.032;9.410;2024-01-30T01:23:17;100323.28;;;-1.77;100.00
71573;BME280;59408;51.032;9.410;2024-01-30T01:25:44;100325.25;;;-1.84;100.00
71573;BME280;59408;51.032;9.410;2024-01-30T01:28:10;100315.19;;;-1.89;100.00
71573;BME280;59408;51.032;9.410;2024-01-30T01:30:38;100324.75;;;-1.93;100.00
71573;BME280;59408;51.032;9.410;2024-01-30T01:33:05;100314.47;;;-1.96;100.00
71573;BME280;59408;51.032;9.410;2024-01-30T01:35:32;100316.34;;;-1.96;100.00
71573;BME280;59408;51.032;9.410;2024-01-30T01:37:58;100321.09;;;-1.98;100.00
71573;BME280;59408;51.032;9.410;2024-01-30T01:40:25;100323.97;;;-2.00;100.00
71573;BME280;59408;51.032;9.410;2024-01-30T01:42:53;100312.84;;;-1.97;100.00
71573;BME280;59408;51.032;9.410;2024-01-30T01:45:21;100319.22;;;-1.98;100.00
71573;BME280;59408;51.032;9.410;2024-01-30T01:47:50;100317.59;;;-1.99;100.00
71573;BME280;59408;51.032;9.410;2024-01-30T01:50:18;100315.75;;;-1.98;100.00
71573;BME280;59408;51.032;9.410;2024-01-30T01:52:46;100319.22;;;-1.98;100.00
71573;BME280;59408;51.032;9.410;2024-01-30T01:55:13;100310.16;;;-1.97;100.00
71573;BME280;59408;51.032;9.410;2024-01-30T01:57:41;100313.88;;;-1.98;100.00
71573;BME280;59408;51.032;9.410;2024-01-30T02:00:09;100307.88;;;-1.93;100.00
71573;BME280;59408;51.032;9.410;2024-01-30T02:02:36;100317.28;;;-1.91;100.00
71573;BME280;59408;51.032;9.410;2024-01-30T02:05:08;100306.38;;;-1.89;100.00
71573;BME280;59408;51.032;9.410;2024-01-30T02:07:35;100312.91;;;-1.85;100.00
71573;BME280;59408;51.032;9.410;2024-01-30T02:10:02;100307.13;;;-1.82;100.00
71573;BME280;59408;51.032;9.410;2024-01-30T02:12:29;100303.75;;;-1.78;100.00
71573;BME280;59408;51.032;9.410;2024-01-30T02:14:55;100309.84;;;-1.89;100.00
71573;BME280;59408;51.032;9.410;2024-01-30T02:17:23;100303.25;;;-1.86;100.00
71573;BME280;59408;51.032;9.410;2024-01-30T02:19:50;100306.03;;;-1.81;100.00
71573;BME280;59408;51.032;9.410;2024-01-30T02:22:19;100308.50;;;-1.80;100.00
71573;BME280;59408;51.032;9.410;2024-01-30T02:24:45;100309.91;;;-1.77;100.00
71573;BME280;59408;51.032;9.410;2024-01-30T02:27:12;100304.44;;;-1.82;100.00
71573;BME280;59408;51.032;9.410;2024-01-30T02:29:39;100309.19;;;-1.84;100.00
71573;BME280;59408;51.032;9.410;2024-01-30T02:32:06;100305.69;;;-1.85;100.00
71573;BME280;59408;51.032;9.410;2024-01-30T02:34:33;100304.72;;;-1.90;100.00
71573;BME280;59408;51.032;9.410;2024-01-30T02:36:59;100306.47;;;-1.96;100.00
71573;BME280;59408;51.032;9.410;2024-01-30T02:39:28;100305.03;;;-1.98;100.00
71573;BME280;59408;51.032;9.410;2024-01-30T02:41:54;100302.59;;;-2.00;100.00
71573;BME280;59408;51.032;9.410;2024-01-30T02:44:21;100307.81;;;-2.05;100.00
71573;BME280;59408;51.032;9.410;2024-01-30T02:46:47;100305.88;;;-1.98;100.00
71573;BME280;59408;51.032;9.410;2024-01-30T02:49:14;100299.91;;;-2.00;100.00
71573;BME280;59408;51.032;9.410;2024-01-30T02:51:41;100301.22;;;-2.02;100.00
71573;BME280;59408;51.032;9.410;2024-01-30T02:54:07;100298.16;;;-2.06;100.00
71573;BME280;59408;51.032;9.410;2024-01-30T02:56:35;100296.75;;;-2.08;100.00
71573;BME280;59408;51.032;9.410;2024-01-30T02:59:02;100298.47;;;-2.14;100.00
71573;BME280;59408;51.032;9.410;2024-01-30T03:01:28;100290.31;;;-2.19;100.00
71573;BME280;59408;51.032;9.410;2024-01-30T03:03:55;100293.34;;;-2.16;100.00
71573;BME280;59408;51.032;9.410;2024-01-30T03:06:21;100283.47;;;-2.15;100.00
71573;BME280;59408;51.032;9.410;2024-01-30T03:08:48;100282.00;;;-2.11;100.00
71573;BME280;59408;51.032;9.410;2024-01-30T03:11:14;100282.44;;;-2.14;100.00
71573;BME280;59408;51.032;9.410;2024-01-30T03:13:43;100285.53;;;-2.17;100.00
71573;BME280;59408;51.032;9.410;2024-01-30T03:16:09;100288.59;;;-2.14;100.00
71573;BME280;59408;51.032;9.410;2024-01-30T03:18:36;100284.50;;;-2.16;100.00
71573;BME280;59408;51.032;9.410;2024-01-30T03:21:03;100286.59;;;-2.18;100.00
71573;BME280;59408;51.032;9.410;2024-01-30T03:23:30;100283.91;;;-2.18;100.00
71573;BME280;59408;51.032;9.410;2024-01-30T03:25:57;100279.97;;;-2.16;100.00
71573;BME280;59408;51.032;9.410;2024-01-30T03:28:23;100276.06;;;-2.13;100.00
71573;BME280;59408;51.032;9.410;2024-01-30T03:30:51;100277.31;;;-2.16;100.00
71573;BME280;59408;51.032;9.410;2024-01-30T03:33:18;100275.09;;;-2.19;100.00
71573;BME280;59408;51.032;9.410;2024-01-30T03:35:44;100273.47;;;-2.20;100.00
71573;BME280;59408;51.032;9.410;2024-01-30T03:38:11;100282.06;;;-2.18;100.00
71573;BME280;59408;51.032;9.410;2024-01-30T03:40:37;100277.78;;;-2.19;100.00
71573;BME280;59408;51.032;9.410;2024-01-30T03:43:04;100279.38;;;-2.18;100.00
71573;BME280;59408;51.032;9.410;2024-01-30T03:45:31;100276.16;;;-2.20;100.00
71573;BME280;59408;51.032;9.410;2024-01-30T03:47:59;100271.63;;;-2.19;100.00
71573;BME280;59408;51.032;9.410;2024-01-30T03:50:25;100261.38;;;-2.22;100.00
71573;BME280;59408;51.032;9.410;2024-01-30T03:52:52;100259.94;;;-2.25;100.00
71573;BME280;59408;51.032;9.410;2024-01-30T03:55:18;100256.03;;;-2.22;100.00
71573;BME280;59408;51.032;9.410;2024-01-30T03:57:45;100259.50;;;-2.22;100.00
71573;BME280;59408;51.032;9.410;2024-01-30T04:00:13;100257.44;;;-2.20;100.00
71573;BME280;59408;51.032;9.410;2024-01-30T04:02:40;100250.81;;;-2.17;100.00
71573;BME280;59408;51.032;9.410;2024-01-30T04:05:08;100253.41;;;-2.10;100.00
71573;BME280;59408;51.032;9.410;2024-01-30T04:07:35;100252.81;;;-2.13;100.00
71573;BME280;59408;51.032;9.410;2024-01-30T04:10:02;100253.63;;;-2.12;100.00
71573;BME280;59408;51.032;9.410;2024-01-30T04:12:29;100248.13;;;-2.17;100.00
71573;BME280;59408;51.032;9.410;2024-01-30T04:14:55;100250.25;;;-2.19;100.00
71573;BME280;59408;51.032;9.410;2024-01-30T04:17:22;100255.19;;;-2.23;100.00
71573;BME280;59408;51.032;9.410;2024-01-30T04:19:49;100261.00;;;-2.26;100.00
71573;BME280;59408;51.032;9.410;2024-01-30T04:22:17;100249.25;;;-2.25;100.00
71573;BME280;59408;51.032;9.410;2024-01-30T04:24:43;100258.53;;;-2.27;100.00
71573;BME280;59408;51.032;9.410;2024-01-30T04:27:10;100248.09;;;-2.29;100.00
71573;BME280;59408;51.032;9.410;2024-01-30T04:29:36;100248.91;;;-2.28;100.00
71573;BME280;59408;51.032;9.410;2024-01-30T04:32:04;100253.66;;;-2.30;100.00
71573;BME280;59408;51.032;9.410;2024-01-30T04:34:30;100253.06;;;-2.32;100.00
71573;BME280;59408;51.032;9.410;2024-01-30T04:36:57;100259.44;;;-2.33;100.00
71573;BME280;59408;51.032;9.410;2024-01-30T04:39:25;100249.56;;;-2.33;100.00
71573;BME280;59408;51.032;9.410;2024-01-30T04:41:51;100248.97;;;-2.35;100.00
71573;BME280;59408;51.032;9.410;2024-01-30T04:44:18;100254.78;;;-2.38;100.00
71573;BME280;59408;51.032;9.410;2024-01-30T04:46:44;100245.34;;;-2.40;100.00
71573;BME280;59408;51.032;9.410;2024-01-30T04:49:11;100246.63;;;-2.43;100.00
71573;BME280;59408;51.032;9.410;2024-01-30T04:51:38;100250.91;;;-2.42;100.00
71573;BME280;59408;51.032;9.410;2024-01-30T04:54:04;100252.34;;;-2.39;100.00
71573;BME280;59408;51.032;9.410;2024-01-30T04:56:32;100257.47;;;-2.38;100.00
71573;BME280;59408;51.032;9.410;2024-01-30T04:58:59;100259.75;;;-2.41;100.00
71573;BME280;59408;51.032;9.410;2024-01-30T05:01:25;100252.78;;;-2.42;100.00
71573;BME280;59408;51.032;9.410;2024-01-30T05:03:52;100253.81;;;-2.43;100.00
71573;BME280;59408;51.032;9.410;2024-01-30T05:06:25;100264.72;;;-2.45;100.00
71573;BME280;59408;51.032;9.410;2024-01-30T05:08:52;100260.88;;;-2.49;100.00
71573;BME280;59408;51.032;9.410;2024-01-30T05:11:18;100259.47;;;-2.52;100.00
71573;BME280;59408;51.032;9.410;2024-01-30T05:13:46;100263.38;;;-2.54;100.00
71573;BME280;59408;51.032;9.410;2024-01-30T05:16:13;100270.66;;;-2.61;100.00
71573;BME280;59408;51.032;9.410;2024-01-30T05:18:40;100271.91;;;-2.64;100.00
71573;BME280;59408;51.032;9.410;2024-01-30T05:21:07;100270.53;;;-2.66;100.00
71573;BME280;59408;51.032;9.410;2024-01-30T05:23:33;100277.94;;;-2.68;100.00
71573;BME280;59408;51.032;9.410;2024-01-30T05:25:59;100266.88;;;-2.72;100.00
71573;BME280;59408;51.032;9.410;2024-01-30T05:28:26;100268.28;;;-2.69;100.00
71573;BME280;59408;51.032;9.410;2024-01-30T05:30:54;100269.09;;;-2.69;100.00
71573;BME280;59408;51.032;9.410;2024-01-30T05:33:21;100273.03;;;-2.71;100.00
71573;BME280;59408;51.032;9.410;2024-01-30T05:35:48;100274.44;;;-2.69;100.00
71573;BME280;59408;51.032;9.410;2024-01-30T05:38:15;100261.91;;;-2.68;100.00
71573;BME280;59408;51.032;9.410;2024-01-30T05:40:42;100273.63;;;-2.69;100.00
71573;BME280;59408;51.032;9.410;2024-01-30T05:43:08;100267.47;;;-2.70;100.00
71573;BME280;59408;51.032;9.410;2024-01-30T05:45:35;100270.06;;;-2.63;100.00
71573;BME280;59408;51.032;9.410;2024-01-30T05:48:03;100279.28;;;-2.59;100.00
71573;BME280;59408;51.032;9.410;2024-01-30T05:50:30;100268.16;;;-2.56;100.00
71573;BME280;59408;51.032;9.410;2024-01-30T05:52:57;100273.72;;;-2.58;100.00
71573;BME280;59408;51.032;9.410;2024-01-30T05:55:23;100273.53;;;-2.63;100.00
71573;BME280;59408;51.032;9.410;2024-01-30T05:57:50;100279.13;;;-2.64;100.00
71573;BME280;59408;51.032;9.410;2024-01-30T06:00:17;100277.63;;;-2.60;100.00
71573;BME280;59408;51.032;9.410;2024-01-30T06:02:44;100266.88;;;-2.54;100.00
71573;BME280;59408;51.032;9.410;2024-01-30T06:05:12;100269.09;;;-2.51;100.00
71573;BME280;59408;51.032;9.410;2024-01-30T06:07:39;100266.22;;;-2.49;100.00
71573;BME280;59408;51.032;9.410;2024-01-30T06:10:07;100269.91;;;-2.50;100.00
71573;BME280;59408;51.032;9.410;2024-01-30T06:12:33;100266.88;;;-2.54;100.00
71573;BME280;59408;51.032;9.410;2024-01-30T06:15:00;100259.75;;;-2.60;100.00
71573;BME280;59408;51.032;9.410;2024-01-30T06:17:27;100269.50;;;-2.65;100.00
71573;BME280;59408;51.032;9.410;2024-01-30T06:19:54;100266.88;;;-2.72;100.00
71573;BME280;59408;51.032;9.410;2024-01-30T06:22:22;100254.78;;;-2.74;100.00
71573;BME280;59408;51.032;9.410;2024-01-30T06:24:49;100260.56;;;-2.77;100.00
71573;BME280;59408;51.032;9.410;2024-01-30T06:27:15;100256.78;;;-2.70;100.00
71573;BME280;59408;51.032;9.410;2024-01-30T06:29:43;100258.84;;;-2.72;100.00
71573;BME280;59408;51.032;9.410;2024-01-30T06:32:09;100259.09;;;-2.73;100.00
71573;BME280;59408;51.032;9.410;2024-01-30T06:34:36;100254.41;;;-2.78;100.00
71573;BME280;59408;51.032;9.410;2024-01-30T06:37:03;100256.25;;;-2.78;100.00
71573;BME280;59408;51.032;9.410;2024-01-30T06:39:31;100266.56;;;-2.82;100.00
71573;BME280;59408;51.032;9.410;2024-01-30T06:41:58;100257.75;;;-2.82;100.00
71573;BME280;59408;51.032;9.410;2024-01-30T06:44:24;100264.72;;;-2.81;100.00
71573;BME280;59408;51.032;9.410;2024-01-30T06:46:51;100262.84;;;-2.81;100.00
71573;BME280;59408;51.032;9.410;2024-01-30T06:49:17;100260.56;;;-2.77;100.00
71573;BME280;59408;51.032;9.410;2024-01-30T06:51:44;100259.66;;;-2.71;100.00
71573;BME280;59408;51.032;9.410;2024-01-30T06:54:10;100254.50;;;-2.66;100.00
71573;BME280;59408;51.032;9.410;2024-01-30T06:56:38;100259.25;;;-2.68;100.00
71573;BME280;59408;51.032;9.410;2024-01-30T06:59:05;100255.75;;;-2.69;100.00
71573;BME280;59408;51.032;9.410;2024-01-30T07:01:31;100261.09;;;-2.69;100.00
71573;BME280;59408;51.032;9.410;2024-01-30T07:03:58;100263.75;;;-2.69;100.00
71573;BME280;59408;51.032;9.410;2024-01-30T07:06:25;100264.56;;;-2.68;100.00
71573;BME280;59408;51.032;9.410;2024-01-30T07:08:51;100264.16;;;-2.65;100.00
71573;BME280;59408;51.032;9.410;2024-01-30T07:11:18;100262.03;;;-2.63;100.00
71573;BME280;59408;51.032;9.410;2024-01-30T07:13:46;100259.25;;;-2.68;100.00
71573;BME280;59408;51.032;9.410;2024-01-30T07:16:13;100259.25;;;-2.68;100.00
71573;BME280;59408;51.032;9.410;2024-01-30T07:18:40;100260.72;;;-2.72;100.00
71573;BME280;59408;51.032;9.410;2024-01-30T07:21:06;100260.94;;;-2.74;100.00
71573;BME280;59408;51.032;9.410;2024-01-30T07:23:33;100258.03;;;-2.72;100.00
71573;BME280;59408;51.032;9.410;2024-01-30T07:25:59;100249.81;;;-2.71;100.00
71573;BME280;59408;51.032;9.410;2024-01-30T07:28:26;100254.13;;;-2.70;100.00
71573;BME280;59408;51.032;9.410;2024-01-30T07:30:54;100257.38;;;-2.68;100.00
71573;BME280;59408;51.032;9.410;2024-01-30T07:33:20;100257.78;;;-2.64;100.00
71573;BME280;59408;51.032;9.410;2024-01-30T07:35:47;100246.41;;;-2.60;100.00
71573;BME280;59408;51.032;9.410;2024-01-30T07:38:14;100252.47;;;-2.53;100.00
71573;BME280;59408;51.032;9.410;2024-01-30T07:40:41;100260.66;;;-2.47;100.00
71573;BME280;59408;51.032;9.410;2024-01-30T07:43:07;100261.53;;;-2.35;100.00
71573;BME280;59408;51.032;9.410;2024-01-30T07:45:34;100262.19;;;-2.22;100.00
71573;BME280;59408;51.032;9.410;2024-01-30T07:48:02;100264.16;;;-2.17;100.00
71573;BME280;59408;51.032;9.410;2024-01-30T07:50:29;100266.19;;;-2.13;100.00
71573;BME280;59408;51.032;9.410;2024-01-30T07:52:56;100268.09;;;-2.01;100.00
71573;BME280;59408;51.032;9.410;2024-01-30T07:55:22;100271.34;;;-1.99;100.00
71573;BME280;59408;51.032;9.410;2024-01-30T07:57:49;100276.25;;;-1.96;100.00
71573;BME280;59408;51.032;9.410;2024-01-30T08:00:18;100269.63;;;-1.94;100.00
71573;BME280;59408;51.032;9.410;2024-01-30T08:02:45;100267.31;;;-1.90;100.00
71573;BME280;59408;51.032;9.410;2024-01-30T08:05:13;100266.03;;;-1.88;100.00
71573;BME280;59408;51.032;9.410;2024-01-30T08:07:40;100274.44;;;-1.84;100.00
71573;BME280;59408;51.032;9.410;2024-01-30T08:10:07;100267.78;;;-1.82;100.00
71573;BME280;59408;51.032;9.410;2024-01-30T08:12:34;100260.72;;;-1.76;100.00
71573;BME280;59408;51.032;9.410;2024-01-30T08:15:00;100269.25;;;-1.67;100.00
71573;BME280;59408;51.032;9.410;2024-01-30T08:17:27;100270.41;;;-1.63;100.00
71573;BME280;59408;51.032;9.410;2024-01-30T08:19:53;100281.25;;;-1.58;100.00
71573;BME280;59408;51.032;9.410;2024-01-30T08:22:21;100280.69;;;-1.49;100.00
71573;BME280;59408;51.032;9.410;2024-01-30T08:24:48;100281.41;;;-1.42;100.00
71573;BME280;59408;51.032;9.410;2024-01-30T08:27:15;100279.44;;;-1.34;100.00
71573;BME280;59408;51.032;9.410;2024-01-30T08:29:41;100278.75;;;-1.30;100.00
71573;BME280;59408;51.032;9.410;2024-01-30T08:32:08;100280.88;;;-1.20;100.00
71573;BME280;59408;51.032;9.410;2024-01-30T08:34:34;100285.28;;;-1.14;100.00
71573;BME280;59408;51.032;9.410;2024-01-30T08:37:01;100283.31;;;-1.07;100.00
71573;BME280;59408;51.032;9.410;2024-01-30T08:39:29;100287.75;;;-1.01;100.00
71573;BME280;59408;51.032;9.410;2024-01-30T08:41:56;100282.88;;;-0.92;100.00
71573;BME280;59408;51.032;9.410;2024-01-30T08:44:22;100285.66;;;-0.87;100.00
71573;BME280;59408;51.032;9.410;2024-01-30T08:46:49;100290.88;;;-0.81;100.00
71573;BME280;59408;51.032;9.410;2024-01-30T08:49:16;100285.75;;;-0.71;100.00
71573;BME280;59408;51.032;9.410;2024-01-30T08:51:43;100296.38;;;-0.64;100.00
71573;BME280;59408;51.032;9.410;2024-01-30T08:54:09;100286.09;;;-0.55;100.00
71573;BME280;59408;51.032;9.410;2024-01-30T08:56:37;100287.00;;;-0.50;100.00
71573;BME280;59408;51.032;9.410;2024-01-30T08:59:04;100282.91;;;-0.41;100.00
71573;BME280;59408;51.032;9.410;2024-01-30T09:01:30;100289.78;;;-0.33;100.00
71573;BME280;59408;51.032;9.410;2024-01-30T09:03:57;100282.41;;;-0.26;100.00
71573;BME280;59408;51.032;9.410;2024-01-30T09:06:23;100285.78;;;-0.19;100.00
71573;BME280;59408;51.032;9.410;2024-01-30T09:08:50;100271.66;;;-0.14;100.00
71573;BME280;59408;51.032;9.410;2024-01-30T09:11:16;100275.38;;;-0.04;100.00
71573;BME280;59408;51.032;9.410;2024-01-30T09:13:44;100279.88;;;0.07;100.00
71573;BME280;59408;51.032;9.410;2024-01-30T09:16:11;100277.63;;;0.16;100.00
71573;BME280;59408;51.032;9.410;2024-01-30T09:18:38;100282.34;;;0.26;100.00
71573;BME280;59408;51.032;9.410;2024-01-30T09:21:04;100286.59;;;0.38;100.00
71573;BME280;59408;51.032;9.410;2024-01-30T09:23:31;100283.28;;;0.48;100.00
71573;BME280;59408;51.032;9.410;2024-01-30T09:25:58;100284.63;;;0.62;100.00
71573;BME280;59408;51.032;9.410;2024-01-30T09:28:24;100286.66;;;0.72;100.00
71573;BME280;59408;51.032;9.410;2024-01-30T09:30:54;100282.50;;;0.81;100.00
71573;BME280;59408;51.032;9.410;2024-01-30T09:33:21;100286.41;;;0.90;100.00
71573;BME280;59408;51.032;9.410;2024-01-30T09:35:47;100283.91;;;1.00;100.00
71573;BME280;59408;51.032;9.410;2024-01-30T09:38:14;100291.84;;;1.12;100.00
71573;BME280;59408;51.032;9.410;2024-01-30T09:40:41;100287.91;;;1.19;100.00
71573;BME280;59408;51.032;9.410;2024-01-30T09:43:07;100288.31;;;1.28;100.00
71573;BME280;59408;51.032;9.410;2024-01-30T09:45:35;100298.66;;;1.36;100.00
71573;BME280;59408;51.032;9.410;2024-01-30T09:48:03;100296.09;;;1.46;100.00
71573;BME280;59408;51.032;9.410;2024-01-30T09:50:30;100294.69;;;1.60;100.00
71573;BME280;59408;51.032;9.410;2024-01-30T09:52:58;100297.31;;;1.77;100.00
71573;BME280;59408;51.032;9.410;2024-01-30T09:55:26;100302.44;;;2.00;100.00
71573;BME280;59408;51.032;9.410;2024-01-30T09:57:52;100298.09;;;2.21;100.00
71573;BME280;59408;51.032;9.410;2024-01-30T10:00:19;100299.59;;;2.34;100.00
71573;BME280;59408;51.032;9.410;2024-01-30T10:02:46;100304.88;;;2.51;100.00
71573;BME280;59408;51.032;9.410;2024-01-30T10:05:15;100306.72;;;2.72;100.00
71573;BME280;59408;51.032;9.410;2024-01-30T10:07:50;100302.84;;;2.95;100.00
71573;BME280;59408;51.032;9.410;2024-01-30T10:10:19;100291.41;;;3.14;100.00
71573;BME280;59408;51.032;9.410;2024-01-30T10:12:45;100292.63;;;3.34;100.00
71573;BME280;59408;51.032;9.410;2024-01-30T10:15:12;100293.25;;;3.51;100.00
71573;BME280;59408;51.032;9.410;2024-01-30T10:17:40;100290.13;;;3.69;100.00
71573;BME280;59408;51.032;9.410;2024-01-30T10:20:08;100275.06;;;3.83;100.00
71573;BME280;59408;51.032;9.410;2024-01-30T10:22:36;100278.09;;;3.97;100.00
71573;BME280;59408;51.032;9.410;2024-01-30T10:25:03;100277.03;;;4.03;100.00
71573;BME280;59408;51.032;9.410;2024-01-30T10:27:32;100277.88;;;4.14;100.00
71573;BME280;59408;51.032;9.410;2024-01-30T10:29:58;100277.38;;;4.27;100.00
71573;BME280;59408;51.032;9.410;2024-01-30T10:32:25;100269.00;;;4.34;100.00
71573;BME280;59408;51.032;9.410;2024-01-30T10:34:52;100260.94;;;4.44;100.00
71573;BME280;59408;51.032;9.410;2024-01-30T10:37:18;100262.00;;;4.58;100.00
71573;BME280;59408;51.032;9.410;2024-01-30T10:39:47;100256.88;;;4.67;100.00
71573;BME280;59408;51.032;9.410;2024-01-30T10:42:17;100256.09;;;4.81;100.00
71573;BME280;59408;51.032;9.410;2024-01-30T10:44:48;100255.00;;;4.92;100.00
71573;BME280;59408;51.032;9.410;2024-01-30T10:47:24;100258.81;;;5.07;100.00
71573;BME280;59408;51.032;9.410;2024-01-30T10:49:52;100251.22;;;5.19;100.00
71573;BME280;59408;51.032;9.410;2024-01-30T10:52:20;100251.44;;;5.32;100.00
71573;BME280;59408;51.032;9.410;2024-01-30T10:54:51;100245.22;;;5.32;99.08
71573;BME280;59408;51.032;9.410;2024-01-30T10:57:17;100246.00;;;5.37;99.85
71573;BME280;59408;51.032;9.410;2024-01-30T10:59:45;100247.63;;;5.44;100.00
71573;BME280;59408;51.032;9.410;2024-01-30T11:02:12;100241.66;;;5.52;100.00
71573;BME280;59408;51.032;9.410;2024-01-30T11:04:41;100245.44;;;5.51;98.25
71573;BME280;59408;51.032;9.410;2024-01-30T11:07:14;100241.09;;;5.60;98.09
71573;BME280;59408;51.032;9.410;2024-01-30T11:09:49;100236.97;;;5.72;97.71
71573;BME280;59408;51.032;9.410;2024-01-30T11:12:16;100235.81;;;5.89;96.79
71573;BME280;59408;51.032;9.410;2024-01-30T11:14:43;100229.81;;;5.97;96.28
71573;BME280;59408;51.032;9.410;2024-01-30T11:17:10;100227.34;;;6.05;96.83
71573;BME280;59408;51.032;9.410;2024-01-30T11:19:36;100225.94;;;6.13;95.94
71573;BME280;59408;51.032;9.410;2024-01-30T11:22:04;100231.81;;;6.25;96.98
71573;BME280;59408;51.032;9.410;2024-01-30T11:24:39;100232.66;;;6.21;94.32
71573;BME280;59408;51.032;9.410;2024-01-30T11:27:09;100238.88;;;6.21;96.10
71573;BME280;59408;51.032;9.410;2024-01-30T11:29:36;100237.03;;;6.17;95.98
71573;BME280;59408;51.032;9.410;2024-01-30T11:32:03;100237.84;;;6.17;95.53
71573;BME280;59408;51.032;9.410;2024-01-30T11:34:32;100238.66;;;6.18;96.36
71573;BME280;59408;51.032;9.410;2024-01-30T11:37:03;100231.63;;;6.11;95.17
71573;BME280;59408;51.032;9.410;2024-01-30T11:39:30;100228.91;;;6.11;95.30
71573;BME280;59408;51.032;9.410;2024-01-30T11:41:57;100233.22;;;6.18;95.27
71573;BME280;59408;51.032;9.410;2024-01-30T11:44:26;100221.81;;;6.21;96.83
71573;BME280;59408;51.032;9.410;2024-01-30T11:46:53;100221.25;;;6.24;95.55
71573;BME280;59408;51.032;9.410;2024-01-30T11:49:19;100219.03;;;6.31;96.37
71573;BME280;59408;51.032;9.410;2024-01-30T11:51:46;100220.13;;;6.35;96.22
71573;BME280;59408;51.032;9.410;2024-01-30T11:54:14;100222.78;;;6.40;94.55
71573;BME280;59408;51.032;9.410;2024-01-30T11:56:40;100222.78;;;6.40;94.82
71573;BME280;59408;51.032;9.410;2024-01-30T11:59:09;100229.00;;;6.45;94.54
71573;BME280;59408;51.032;9.410;2024-01-30T12:01:37;100225.13;;;6.51;93.52
71573;BME280;59408;51.032;9.410;2024-01-30T12:04:04;100220.59;;;6.76;92.74
71573;BME280;59408;51.032;9.410;2024-01-30T12:06:31;100225.94;;;6.86;92.00
71573;BME280;59408;51.032;9.410;2024-01-30T12:08:58;100221.59;;;6.85;91.94
71573;BME280;59408;51.032;9.410;2024-01-30T12:11:25;100226.78;;;6.81;91.80
71573;BME280;59408;51.032;9.410;2024-01-30T12:13:53;100220.38;;;6.72;92.00
71573;BME280;59408;51.032;9.410;2024-01-30T12:16:19;100219.88;;;6.65;93.23
71573;BME280;59408;51.032;9.410;2024-01-30T12:18:47;100224.19;;;6.66;93.93
71573;BME280;59408;51.032;9.410;2024-01-30T12:21:16;100222.81;;;6.69;94.26
71573;BME280;59408;51.032;9.410;2024-01-30T12:23:42;100224.19;;;6.66;93.64
71573;BME280;59408;51.032;9.410;2024-01-30T12:26:09;100225.19;;;6.80;93.48
71573;BME280;59408;51.032;9.410;2024-01-30T12:28:36;100226.41;;;6.93;92.64
71573;BME280;59408;51.032;9.410;2024-01-30T12:31:03;100225.47;;;7.08;92.12
71573;BME280;59408;51.032;9.410;2024-01-30T12:33:30;100229.75;;;7.14;91.36
71573;BME280;59408;51.032;9.410;2024-01-30T12:36:01;100220.78;;;7.13;92.28
71573;BME280;59408;51.032;9.410;2024-01-30T12:38:29;100223.97;;;7.20;92.00
71573;BME280;59408;51.032;9.410;2024-01-30T12:40:56;100200.31;;;7.26;91.04